sensor_id;sensor_type;location;lat;lon;timestamp;P1;durP1;ratioP1;P2;durP2;ratioP2
5125;SDS011;63008;53.112;8.896;2023-08-17T00:00:27;7.53;;;1.87;;
5125;SDS011;63008;53.112;8.896;2023-08-17T00:02:28;2.93;;;2.20;;
5125;SDS011;63008;53.112;8.896;2023-08-17T00:04:29;7.50;;;1.83;;
5125;SDS011;63008;53.112;8.896;2023-08-17T00:06:30;12.30;;;2.27;;
5125;SDS011;63008;53.112;8.896;2023-08-17T00:08:31;11.00;;;2.37;;
5125;SDS011;63008;53.112;8.896;2023-08-17T00:10:32;8.97;;;2.33;;
5125;SDS011;63008;53.112;8.896;2023-08-17T00:12:33;3.23;;;1.80;;
5125;SDS011;63008;53.112;8.896;2023-08-17T00:14:34;6.83;;;1.60;;
5125;SDS011;63008;53.112;8.896;2023-08-17T00:16:35;9.57;;;2.70;;
5125;SDS011;63008;53.112;8.896;2023-08-17T00:18:36;8.03;;;2.13;;
5125;SDS011;63008;53.112;8.896;2023-08-17T00:20:36;6.07;;;1.50;;
5125;SDS011;63008;53.112;8.896;2023-08-17T00:22:37;12.03;;;2.20;;
5125;SDS011;63008;53.112;8.896;2023-08-17T00:24:39;5.90;;;1.67;;
5125;SDS011;63008;53.112;8.896;2023-08-17T00:26:42;13.63;;;2.40;;
5125;SDS011;63008;53.112;8.896;2023-08-17T00:28:43;2.50;;;2.30;;
5125;SDS011;63008;53.112;8.896;2023-08-17T00:30:44;3.37;;;2.00;;
5125;SDS011;63008;53.112;8.896;2023-08-17T00:32:45;6.50;;;2.73;;
5125;SDS011;63008;53.112;8.896;2023-08-17T00:34:46;10.83;;;1.90;;
5125;SDS011;63008;53.112;8.896;2023-08-17T00:36:47;7.20;;;2.50;;
5125;SDS011;63008;53.112;8.896;2023-08-17T00:38:48;4.30;;;2.20;;
5125;SDS011;63008;53.112;8.896;2023-08-17T00:40:49;4.73;;;2.10;;
5125;SDS011;63008;53.112;8.896;2023-08-17T00:42:50;9.33;;;2.40;;
5125;SDS011;63008;53.112;8.896;2023-08-17T00:44:52;6.37;;;1.90;;
5125;SDS011;63008;53.112;8.896;2023-08-17T00:46:53;9.90;;;2.50;;
5125;SDS011;63008;53.112;8.896;2023-08-17T00:48:54;2.60;;;2.10;;
5125;SDS011;63008;53.112;8.896;2023-08-17T00:50:55;7.10;;;1.87;;
5125;SDS011;63008;53.112;8.896;2023-08-17T00:52:58;8.50;;;2.33;;
5125;SDS011;63008;53.112;8.896;2023-08-17T00:54:59;7.40;;;2.73;;
5125;SDS011;63008;53.112;8.896;2023-08-17T00:57:01;9.90;;;2.50;;
5125;SDS011;63008;53.112;8.896;2023-08-17T00:59:02;4.13;;;2.03;;
5125;SDS011;63008;53.112;8.896;2023-08-17T01:01:03;6.10;;;2.37;;
5125;SDS011;63008;53.112;8.896;2023-08-17T01:03:04;5.37;;;2.23;;
5125;SDS011;63008;53.112;8.896;2023-08-17T01:05:05;7.70;;;2.47;;
5125;SDS011;63008;53.112;8.896;2023-08-17T01:07:06;5.17;;;2.47;;
5125;SDS011;63008;53.112;8.896;2023-08-17T01:09:07;3.30;;;1.63;;
5125;SDS011;63008;53.112;8.896;2023-08-17T01:11:18;5.33;;;2.03;;
5125;SDS011;63008;53.112;8.896;2023-08-17T01:13:24;8.90;;;2.17;;
5125;SDS011;63008;53.112;8.896;2023-08-17T01:15:35;10.17;;;2.17;;
5125;SDS011;63008;53.112;8.896;2023-08-17T01:17:44;6.73;;;2.53;;
5125;SDS011;63008;53.112;8.896;2023-08-17T01:20:07;7.80;;;2.47;;
5125;SDS011;63008;53.112;8.896;2023-08-17T01:22:10;5.67;;;2.27;;
5125;SDS011;63008;53.112;8.896;2023-08-17T01:24:13;7.83;;;2.20;;
5125;SDS011;63008;53.112;8.896;2023-08-17T01:26:14;5.43;;;1.87;;
5125;SDS011;63008;53.112;8.896;2023-08-17T01:28:16;7.17;;;2.00;;
5125;SDS011;63008;53.112;8.896;2023-08-17T01:30:17;4.70;;;1.60;;
5125;SDS011;63008;53.112;8.896;2023-08-17T01:34:36;2.53;;;1.90;;
5125;SDS011;63008;53.112;8.896;2023-08-17T01:36:42;4.13;;;1.70;;
5125;SDS011;63008;53.112;8.896;2023-08-17T01:38:47;7.73;;;1.73;;
5125;SDS011;63008;53.112;8.896;2023-08-17T01:40:51;10.00;;;2.30;;
5125;SDS011;63008;53.112;8.896;2023-08-17T01:42:54;7.80;;;2.43;;
5125;SDS011;63008;53.112;8.896;2023-08-17T01:44:56;5.13;;;1.90;;
5125;SDS011;63008;53.112;8.896;2023-08-17T01:46:57;6.00;;;2.20;;
5125;SDS011;63008;53.112;8.896;2023-08-17T01:48:58;6.17;;;2.20;;
5125;SDS011;63008;53.112;8.896;2023-08-17T01:50:59;9.40;;;2.40;;
5125;SDS011;63008;53.112;8.896;2023-08-17T01:52:59;4.23;;;2.23;;
5125;SDS011;63008;53.112;8.896;2023-08-17T01:55:00;5.27;;;2.07;;
5125;SDS011;63008;53.112;8.896;2023-08-17T01:57:01;8.03;;;2.20;;
5125;SDS011;63008;53.112;8.896;2023-08-17T01:59:03;7.63;;;2.10;;
5125;SDS011;63008;53.112;8.896;2023-08-17T02:01:04;4.03;;;2.17;;
5125;SDS011;63008;53.112;8.896;2023-08-17T02:03:05;5.40;;;2.37;;
5125;SDS011;63008;53.112;8.896;2023-08-17T02:05:06;9.27;;;2.27;;
5125;SDS011;63008;53.112;8.896;2023-08-17T02:07:07;3.53;;;1.87;;
5125;SDS011;63008;53.112;8.896;2023-08-17T02:09:08;9.70;;;2.07;;
5125;SDS011;63008;53.112;8.896;2023-08-17T02:11:09;4.30;;;2.00;;
5125;SDS011;63008;53.112;8.896;2023-08-17T02:13:10;5.10;;;2.20;;
5125;SDS011;63008;53.112;8.896;2023-08-17T02:15:11;3.10;;;2.30;;
5125;SDS011;63008;53.112;8.896;2023-08-17T02:17:12;4.03;;;2.20;;
5125;SDS011;63008;53.112;8.896;2023-08-17T02:19:14;7.93;;;2.23;;
5125;SDS011;63008;53.112;8.896;2023-08-17T02:21:15;5.40;;;2.20;;
5125;SDS011;63008;53.112;8.896;2023-08-17T02:23:16;4.53;;;2.03;;
5125;SDS011;63008;53.112;8.896;2023-08-17T02:25:16;6.67;;;3.00;;
5125;SDS011;63008;53.112;8.896;2023-08-17T02:27:17;3.13;;;2.37;;
5125;SDS011;63008;53.112;8.896;2023-08-17T02:29:18;7.60;;;2.60;;
5125;SDS011;63008;53.112;8.896;2023-08-17T02:31:19;3.83;;;2.30;;
5125;SDS011;63008;53.112;8.896;2023-08-17T02:33:20;8.50;;;2.40;;
5125;SDS011;63008;53.112;8.896;2023-08-17T02:35:21;3.97;;;2.90;;
5125;SDS011;63008;53.112;8.896;2023-08-17T02:37:22;15.10;;;3.10;;
5125;SDS011;63008;53.112;8.896;2023-08-17T02:39:23;6.20;;;2.47;;
5125;SDS011;63008;53.112;8.896;2023-08-17T02:41:25;8.20;;;2.90;;
5125;SDS011;63008;53.112;8.896;2023-08-17T02:43:26;7.70;;;2.27;;
5125;SDS011;63008;53.112;8.896;2023-08-17T02:45:27;5.30;;;2.50;;
5125;SDS011;63008;53.112;8.896;2023-08-17T02:47:28;3.27;;;2.90;;
5125;SDS011;63008;53.112;8.896;2023-08-17T02:49:29;3.00;;;2.23;;
5125;SDS011;63008;53.112;8.896;2023-08-17T02:51:29;2.50;;;2.30;;
5125;SDS011;63008;53.112;8.896;2023-08-17T02:53:30;12.90;;;2.40;;
5125;SDS011;63008;53.112;8.896;2023-08-17T02:55:31;7.20;;;2.40;;
5125;SDS011;63008;53.112;8.896;2023-08-17T02:57:32;3.97;;;2.30;;
5125;SDS011;63008;53.112;8.896;2023-08-17T02:59:33;5.07;;;2.00;;
5125;SDS011;63008;53.112;8.896;2023-08-17T03:01:34;3.70;;;2.27;;
5125;SDS011;63008;53.112;8.896;2023-08-17T03:03:36;5.13;;;2.23;;
5125;SDS011;63008;53.112;8.896;2023-08-17T03:05:37;4.23;;;1.97;;
5125;SDS011;63008;53.112;8.896;2023-08-17T03:07:37;2.33;;;2.13;;
5125;SDS011;63008;53.112;8.896;2023-08-17T03:09:38;5.10;;;2.27;;
5125;SDS011;63008;53.112;8.896;2023-08-17T03:11:39;3.40;;;2.20;;
5125;SDS011;63008;53.112;8.896;2023-08-17T03:13:40;4.87;;;2.23;;
5125;SDS011;63008;53.112;8.896;2023-08-17T03:15:41;2.93;;;2.13;;
5125;SDS011;63008;53.112;8.896;2023-08-17T03:17:42;8.20;;;2.20;;
5125;SDS011;63008;53.112;8.896;2023-08-17T03:19:43;8.27;;;2.73;;
5125;SDS011;63008;53.112;8.896;2023-08-17T03:21:44;6.70;;;2.20;;
5125;SDS011;63008;53.112;8.896;2023-08-17T03:23:45;6.30;;;2.10;;
5125;SDS011;63008;53.112;8.896;2023-08-17T03:25:50;4.00;;;2.57;;
5125;SDS011;63008;53.112;8.896;2023-08-17T03:27:52;3.40;;;2.00;;
5125;SDS011;63008;53.112;8.896;2023-08-17T03:29:53;4.70;;;2.60;;
5125;SDS011;63008;53.112;8.896;2023-08-17T03:31:54;5.57;;;2.47;;
5125;SDS011;63008;53.112;8.896;2023-08-17T03:33:55;3.30;;;2.00;;
5125;SDS011;63008;53.112;8.896;2023-08-17T03:35:56;4.33;;;2.00;;
5125;SDS011;63008;53.112;8.896;2023-08-17T03:37:57;7.30;;;2.13;;
5125;SDS011;63008;53.112;8.896;2023-08-17T03:39:58;5.10;;;3.23;;
5125;SDS011;63008;53.112;8.896;2023-08-17T03:42:01;8.20;;;2.20;;
5125;SDS011;63008;53.112;8.896;2023-08-17T03:44:02;7.60;;;1.97;;
5125;SDS011;63008;53.112;8.896;2023-08-17T03:46:06;8.43;;;1.97;;
5125;SDS011;63008;53.112;8.896;2023-08-17T03:48:07;7.20;;;2.07;;
5125;SDS011;63008;53.112;8.896;2023-08-17T03:50:08;6.33;;;2.60;;
5125;SDS011;63008;53.112;8.896;2023-08-17T03:52:10;7.20;;;3.07;;
5125;SDS011;63008;53.112;8.896;2023-08-17T03:54:12;5.03;;;2.17;;
5125;SDS011;63008;53.112;8.896;2023-08-17T03:56:13;2.20;;;2.00;;
5125;SDS011;63008;53.112;8.896;2023-08-17T03:58:14;3.97;;;1.90;;
5125;SDS011;63008;53.112;8.896;2023-08-17T04:00:16;2.70;;;2.13;;
5125;SDS011;63008;53.112;8.896;2023-08-17T04:02:17;8.23;;;2.17;;
5125;SDS011;63008;53.112;8.896;2023-08-17T04:04:18;4.90;;;2.60;;
5125;SDS011;63008;53.112;8.896;2023-08-17T04:06:19;5.23;;;2.97;;
5125;SDS011;63008;53.112;8.896;2023-08-17T04:08:20;3.83;;;2.10;;
5125;SDS011;63008;53.112;8.896;2023-08-17T04:10:21;5.90;;;2.73;;
5125;SDS011;63008;53.112;8.896;2023-08-17T04:12:22;7.70;;;2.60;;
5125;SDS011;63008;53.112;8.896;2023-08-17T04:14:23;11.83;;;2.70;;
5125;SDS011;63008;53.112;8.896;2023-08-17T04:16:24;7.10;;;2.93;;
5125;SDS011;63008;53.112;8.896;2023-08-17T04:18:25;6.83;;;2.80;;
5125;SDS011;63008;53.112;8.896;2023-08-17T04:20:26;6.50;;;2.30;;
5125;SDS011;63008;53.112;8.896;2023-08-17T04:22:27;9.77;;;2.73;;
5125;SDS011;63008;53.112;8.896;2023-08-17T04:24:28;4.90;;;2.33;;
5125;SDS011;63008;53.112;8.896;2023-08-17T04:26:29;8.97;;;3.27;;
5125;SDS011;63008;53.112;8.896;2023-08-17T04:28:30;9.07;;;2.60;;
5125;SDS011;63008;53.112;8.896;2023-08-17T04:30:31;4.73;;;2.70;;
5125;SDS011;63008;53.112;8.896;2023-08-17T04:32:32;7.30;;;3.30;;
5125;SDS011;63008;53.112;8.896;2023-08-17T04:34:33;8.13;;;2.33;;
5125;SDS011;63008;53.112;8.896;2023-08-17T04:36:34;5.70;;;2.43;;
5125;SDS011;63008;53.112;8.896;2023-08-17T04:38:35;8.50;;;2.40;;
5125;SDS011;63008;53.112;8.896;2023-08-17T04:40:36;4.23;;;2.67;;
5125;SDS011;63008;53.112;8.896;2023-08-17T04:42:37;5.27;;;2.80;;
5125;SDS011;63008;53.112;8.896;2023-08-17T04:44:38;4.10;;;2.40;;
5125;SDS011;63008;53.112;8.896;2023-08-17T04:46:39;3.07;;;2.67;;
5125;SDS011;63008;53.112;8.896;2023-08-17T04:48:39;5.37;;;2.40;;
5125;SDS011;63008;53.112;8.896;2023-08-17T04:50:40;5.37;;;2.40;;
5125;SDS011;63008;53.112;8.896;2023-08-17T04:52:42;3.53;;;2.40;;
5125;SDS011;63008;53.112;8.896;2023-08-17T04:54:44;6.30;;;2.20;;
5125;SDS011;63008;53.112;8.896;2023-08-17T04:56:48;5.60;;;2.50;;
5125;SDS011;63008;53.112;8.896;2023-08-17T04:58:49;5.60;;;2.30;;
5125;SDS011;63008;53.112;8.896;2023-08-17T05:00:50;4.10;;;2.80;;
5125;SDS011;63008;53.112;8.896;2023-08-17T05:02:51;4.23;;;2.50;;
5125;SDS011;63008;53.112;8.896;2023-08-17T05:04:52;4.37;;;2.67;;
5125;SDS011;63008;53.112;8.896;2023-08-17T05:06:53;4.63;;;2.47;;
5125;SDS011;63008;53.112;8.896;2023-08-17T05:08:54;6.70;;;2.83;;
5125;SDS011;63008;53.112;8.896;2023-08-17T05:10:55;5.37;;;2.47;;
5125;SDS011;63008;53.112;8.896;2023-08-17T05:12:56;3.13;;;2.60;;
5125;SDS011;63008;53.112;8.896;2023-08-17T05:14:57;7.63;;;2.30;;
5125;SDS011;63008;53.112;8.896;2023-08-17T05:16:57;9.43;;;2.60;;
5125;SDS011;63008;53.112;8.896;2023-08-17T05:18:58;5.13;;;2.67;;
5125;SDS011;63008;53.112;8.896;2023-08-17T05:21:00;6.17;;;2.83;;
5125;SDS011;63008;53.112;8.896;2023-08-17T05:23:01;5.70;;;2.90;;
5125;SDS011;63008;53.112;8.896;2023-08-17T05:25:02;3.87;;;2.70;;
5125;SDS011;63008;53.112;8.896;2023-08-17T05:27:04;6.30;;;3.00;;
5125;SDS011;63008;53.112;8.896;2023-08-17T05:29:05;5.23;;;3.27;;
5125;SDS011;63008;53.112;8.896;2023-08-17T05:31:06;6.97;;;2.20;;
5125;SDS011;63008;53.112;8.896;2023-08-17T05:33:07;4.10;;;3.20;;
5125;SDS011;63008;53.112;8.896;2023-08-17T05:35:08;5.33;;;2.57;;
5125;SDS011;63008;53.112;8.896;2023-08-17T05:37:09;4.23;;;2.27;;
5125;SDS011;63008;53.112;8.896;2023-08-17T05:39:10;3.13;;;2.20;;
5125;SDS011;63008;53.112;8.896;2023-08-17T05:41:11;5.20;;;2.00;;
5125;SDS011;63008;53.112;8.896;2023-08-17T05:43:12;4.33;;;2.40;;
5125;SDS011;63008;53.112;8.896;2023-08-17T05:45:13;6.67;;;2.90;;
5125;SDS011;63008;53.112;8.896;2023-08-17T05:47:14;8.80;;;2.80;;
5125;SDS011;63008;53.112;8.896;2023-08-17T05:49:18;6.87;;;2.23;;
5125;SDS011;63008;53.112;8.896;2023-08-17T05:51:19;6.00;;;2.70;;
5125;SDS011;63008;53.112;8.896;2023-08-17T05:53:19;7.03;;;2.17;;
5125;SDS011;63008;53.112;8.896;2023-08-17T05:55:20;5.27;;;2.70;;
5125;SDS011;63008;53.112;8.896;2023-08-17T05:57:21;6.30;;;3.00;;
5125;SDS011;63008;53.112;8.896;2023-08-17T05:59:23;5.57;;;2.63;;
5125;SDS011;63008;53.112;8.896;2023-08-17T06:01:23;10.17;;;2.80;;
5125;SDS011;63008;53.112;8.896;2023-08-17T07:37:06;3.57;;;2.00;;
5125;SDS011;63008;53.112;8.896;2023-08-17T07:39:07;2.60;;;1.73;;
5125;SDS011;63008;53.112;8.896;2023-08-17T07:41:08;4.50;;;2.33;;
5125;SDS011;63008;53.112;8.896;2023-08-17T07:43:09;2.17;;;1.87;;
5125;SDS011;63008;53.112;8.896;2023-08-17T07:45:10;2.33;;;1.80;;
5125;SDS011;63008;53.112;8.896;2023-08-17T07:47:12;1.60;;;1.43;;
5125;SDS011;63008;53.112;8.896;2023-08-17T07:49:13;2.97;;;1.63;;
5125;SDS011;63008;53.112;8.896;2023-08-17T07:51:14;2.90;;;1.73;;
5125;SDS011;63008;53.112;8.896;2023-08-17T07:53:15;3.70;;;1.57;;
5125;SDS011;63008;53.112;8.896;2023-08-17T07:55:16;5.90;;;2.03;;
5125;SDS011;63008;53.112;8.896;2023-08-17T07:57:17;1.40;;;1.30;;
5125;SDS011;63008;53.112;8.896;2023-08-17T07:59:18;1.90;;;1.67;;
5125;SDS011;63008;53.112;8.896;2023-08-17T08:01:19;2.07;;;1.90;;
5125;SDS011;63008;53.112;8.896;2023-08-17T08:03:20;6.20;;;1.60;;
5125;SDS011;63008;53.112;8.896;2023-08-17T08:05:23;2.10;;;1.30;;
5125;SDS011;63008;53.112;8.896;2023-08-17T08:07:24;1.83;;;1.50;;
5125;SDS011;63008;53.112;8.896;2023-08-17T08:09:25;1.70;;;1.57;;
5125;SDS011;63008;53.112;8.896;2023-08-17T08:11:26;2.40;;;1.63;;
5125;SDS011;63008;53.112;8.896;2023-08-17T08:13:31;2.43;;;1.73;;
5125;SDS011;63008;53.112;8.896;2023-08-17T08:15:35;1.50;;;1.40;;
5125;SDS011;63008;53.112;8.896;2023-08-17T08:17:36;3.97;;;1.90;;
5125;SDS011;63008;53.112;8.896;2023-08-17T08:19:37;1.97;;;1.43;;
5125;SDS011;63008;53.112;8.896;2023-08-17T08:21:38;2.40;;;1.73;;
5125;SDS011;63008;53.112;8.896;2023-08-17T08:23:39;1.33;;;1.23;;
5125;SDS011;63008;53.112;8.896;2023-08-17T08:25:40;3.07;;;1.63;;
5125;SDS011;63008;53.112;8.896;2023-08-17T08:27:41;1.77;;;1.67;;
5125;SDS011;63008;53.112;8.896;2023-08-17T08:29:42;2.90;;;1.43;;
5125;SDS011;63008;53.112;8.896;2023-08-17T08:31:43;2.10;;;1.53;;
5125;SDS011;63008;53.112;8.896;2023-08-17T08:33:44;2.30;;;1.50;;
5125;SDS011;63008;53.112;8.896;2023-08-17T08:35:45;1.30;;;1.20;;
5125;SDS011;63008;53.112;8.896;2023-08-17T08:37:46;3.80;;;1.40;;
5125;SDS011;63008;53.112;8.896;2023-08-17T08:39:48;3.90;;;1.80;;
5125;SDS011;63008;53.112;8.896;2023-08-17T08:41:53;3.03;;;1.73;;
5125;SDS011;63008;53.112;8.896;2023-08-17T08:43:54;2.13;;;2.03;;
5125;SDS011;63008;53.112;8.896;2023-08-17T08:45:56;2.20;;;1.90;;
5125;SDS011;63008;53.112;8.896;2023-08-17T08:47:59;2.10;;;1.90;;
5125;SDS011;63008;53.112;8.896;2023-08-17T08:50:02;3.23;;;1.90;;
5125;SDS011;63008;53.112;8.896;2023-08-17T08:52:05;4.33;;;2.37;;
5125;SDS011;63008;53.112;8.896;2023-08-17T08:54:08;3.07;;;1.80;;
5125;SDS011;63008;53.112;8.896;2023-08-17T08:56:13;1.67;;;1.57;;
5125;SDS011;63008;53.112;8.896;2023-08-17T08:58:19;1.50;;;1.40;;
5125;SDS011;63008;53.112;8.896;2023-08-17T09:00:22;3.13;;;1.50;;
5125;SDS011;63008;53.112;8.896;2023-08-17T09:02:25;1.40;;;1.30;;
5125;SDS011;63008;53.112;8.896;2023-08-17T09:04:26;2.47;;;1.60;;
5125;SDS011;63008;53.112;8.896;2023-08-17T09:06:28;2.07;;;1.97;;
5125;SDS011;63008;53.112;8.896;2023-08-17T09:08:30;3.30;;;1.27;;
5125;SDS011;63008;53.112;8.896;2023-08-17T09:10:31;1.23;;;1.10;;
5125;SDS011;63008;53.112;8.896;2023-08-17T09:12:32;3.57;;;1.50;;
5125;SDS011;63008;53.112;8.896;2023-08-17T09:14:33;1.17;;;1.00;;
5125;SDS011;63008;53.112;8.896;2023-08-17T09:16:34;2.20;;;0.80;;
5125;SDS011;63008;53.112;8.896;2023-08-17T09:18:35;0.90;;;0.90;;
5125;SDS011;63008;53.112;8.896;2023-08-17T09:20:43;0.93;;;0.83;;
5125;SDS011;63008;53.112;8.896;2023-08-17T09:22:47;1.33;;;1.07;;
5125;SDS011;63008;53.112;8.896;2023-08-17T09:24:49;1.27;;;0.87;;
5125;SDS011;63008;53.112;8.896;2023-08-17T09:26:52;2.63;;;0.90;;
5125;SDS011;63008;53.112;8.896;2023-08-17T09:28:54;0.93;;;0.93;;
5125;SDS011;63008;53.112;8.896;2023-08-17T09:30:58;2.57;;;1.37;;
5125;SDS011;63008;53.112;8.896;2023-08-17T09:33:03;2.10;;;0.90;;
5125;SDS011;63008;53.112;8.896;2023-08-17T09:35:05;0.90;;;0.77;;
5125;SDS011;63008;53.112;8.896;2023-08-17T09:37:06;1.07;;;1.07;;
5125;SDS011;63008;53.112;8.896;2023-08-17T09:39:08;2.13;;;1.10;;
5125;SDS011;63008;53.112;8.896;2023-08-17T09:41:09;0.90;;;0.90;;
5125;SDS011;63008;53.112;8.896;2023-08-17T09:43:10;2.40;;;0.90;;
5125;SDS011;63008;53.112;8.896;2023-08-17T09:45:11;1.60;;;1.50;;
5125;SDS011;63008;53.112;8.896;2023-08-17T09:47:12;1.17;;;0.93;;
5125;SDS011;63008;53.112;8.896;2023-08-17T09:49:13;1.13;;;1.03;;
5125;SDS011;63008;53.112;8.896;2023-08-17T09:51:14;1.73;;;1.00;;
5125;SDS011;63008;53.112;8.896;2023-08-17T09:53:17;1.20;;;1.07;;
5125;SDS011;63008;53.112;8.896;2023-08-17T09:55:18;1.53;;;1.40;;
5125;SDS011;63008;53.112;8.896;2023-08-17T09:57:22;1.27;;;1.17;;
5125;SDS011;63008;53.112;8.896;2023-08-17T09:59:24;3.90;;;1.37;;
5125;SDS011;63008;53.112;8.896;2023-08-17T10:01:26;0.97;;;0.97;;
5125;SDS011;63008;53.112;8.896;2023-08-17T10:03:29;1.27;;;1.17;;
5125;SDS011;63008;53.112;8.896;2023-08-17T10:05:35;1.97;;;1.60;;
5125;SDS011;63008;53.112;8.896;2023-08-17T10:07:41;4.20;;;1.50;;
5125;SDS011;63008;53.112;8.896;2023-08-17T10:09:53;2.00;;;1.83;;
5125;SDS011;63008;53.112;8.896;2023-08-17T10:11:57;1.60;;;1.50;;
5125;SDS011;63008;53.112;8.896;2023-08-17T10:14:05;4.67;;;1.70;;
5125;SDS011;63008;53.112;8.896;2023-08-17T10:16:23;1.40;;;1.30;;
5125;SDS011;63008;53.112;8.896;2023-08-17T10:18:31;6.30;;;1.50;;
5125;SDS011;63008;53.112;8.896;2023-08-17T10:20:36;4.37;;;1.73;;
5125;SDS011;63008;53.112;8.896;2023-08-17T10:22:43;3.53;;;1.47;;
5125;SDS011;63008;53.112;8.896;2023-08-17T10:24:51;1.33;;;1.20;;
5125;SDS011;63008;53.112;8.896;2023-08-17T10:26:52;3.67;;;1.80;;
5125;SDS011;63008;53.112;8.896;2023-08-17T10:28:54;1.60;;;1.50;;
5125;SDS011;63008;53.112;8.896;2023-08-17T10:30:58;3.37;;;1.30;;
5125;SDS011;63008;53.112;8.896;2023-08-17T10:32:59;1.63;;;1.33;;
5125;SDS011;63008;53.112;8.896;2023-08-17T10:35:01;1.80;;;1.20;;
5125;SDS011;63008;53.112;8.896;2023-08-17T10:37:03;1.50;;;1.30;;
5125;SDS011;63008;53.112;8.896;2023-08-17T10:39:25;1.83;;;1.53;;
5125;SDS011;63008;53.112;8.896;2023-08-17T10:41:27;2.20;;;1.43;;
5125;SDS011;63008;53.112;8.896;2023-08-17T10:43:32;1.80;;;1.50;;
5125;SDS011;63008;53.112;8.896;2023-08-17T10:45:35;1.23;;;1.23;;
5125;SDS011;63008;53.112;8.896;2023-08-17T10:47:38;3.20;;;1.53;;
5125;SDS011;63008;53.112;8.896;2023-08-17T10:49:39;2.47;;;1.43;;
5125;SDS011;63008;53.112;8.896;2023-08-17T10:51:46;1.10;;;1.10;;
5125;SDS011;63008;53.112;8.896;2023-08-17T10:54:03;1.63;;;1.50;;
5125;SDS011;63008;53.112;8.896;2023-08-17T10:56:06;4.73;;;1.83;;
5125;SDS011;63008;53.112;8.896;2023-08-17T10:58:09;3.40;;;1.50;;
5125;SDS011;63008;53.112;8.896;2023-08-17T11:00:20;1.67;;;1.47;;
5125;SDS011;63008;53.112;8.896;2023-08-17T11:02:30;2.80;;;1.47;;
5125;SDS011;63008;53.112;8.896;2023-08-17T11:04:32;2.50;;;1.70;;
5125;SDS011;63008;53.112;8.896;2023-08-17T11:06:33;3.00;;;1.43;;
5125;SDS011;63008;53.112;8.896;2023-08-17T11:08:39;2.60;;;1.97;;
5125;SDS011;63008;53.112;8.896;2023-08-17T11:10:47;2.40;;;1.80;;
5125;SDS011;63008;53.112;8.896;2023-08-17T11:12:49;2.93;;;1.60;;
5125;SDS011;63008;53.112;8.896;2023-08-17T11:14:50;1.90;;;1.80;;
5125;SDS011;63008;53.112;8.896;2023-08-17T11:16:51;2.70;;;1.70;;
5125;SDS011;63008;53.112;8.896;2023-08-17T11:18:52;2.60;;;1.50;;
5125;SDS011;63008;53.112;8.896;2023-08-17T11:20:53;2.43;;;1.70;;
5125;SDS011;63008;53.112;8.896;2023-08-17T11:22:55;1.70;;;1.60;;
5125;SDS011;63008;53.112;8.896;2023-08-17T11:24:55;2.70;;;1.60;;
5125;SDS011;63008;53.112;8.896;2023-08-17T11:26:56;1.60;;;1.50;;
5125;SDS011;63008;53.112;8.896;2023-08-17T11:28:58;1.60;;;1.47;;
5125;SDS011;63008;53.112;8.896;2023-08-17T11:31:01;1.20;;;1.20;;
5125;SDS011;63008;53.112;8.896;2023-08-17T11:33:06;4.50;;;1.43;;
5125;SDS011;63008;53.112;8.896;2023-08-17T11:35:08;1.40;;;1.30;;
5125;SDS011;63008;53.112;8.896;2023-08-17T11:37:11;3.13;;;1.40;;
5125;SDS011;63008;53.112;8.896;2023-08-17T11:39:12;2.97;;;1.20;;
5125;SDS011;63008;53.112;8.896;2023-08-17T11:41:14;2.90;;;1.67;;
5125;SDS011;63008;53.112;8.896;2023-08-17T11:43:16;2.33;;;1.70;;
5125;SDS011;63008;53.112;8.896;2023-08-17T11:45:17;1.93;;;1.77;;
5125;SDS011;63008;53.112;8.896;2023-08-17T11:47:18;1.67;;;1.57;;
5125;SDS011;63008;53.112;8.896;2023-08-17T11:49:19;2.07;;;1.70;;
5125;SDS011;63008;53.112;8.896;2023-08-17T11:51:30;4.27;;;2.60;;
5125;SDS011;63008;53.112;8.896;2023-08-17T11:53:35;2.00;;;1.53;;
5125;SDS011;63008;53.112;8.896;2023-08-17T11:55:36;2.20;;;1.93;;
5125;SDS011;63008;53.112;8.896;2023-08-17T11:57:37;1.30;;;1.20;;
5125;SDS011;63008;53.112;8.896;2023-08-17T11:59:38;3.93;;;1.70;;
5125;SDS011;63008;53.112;8.896;2023-08-17T12:01:39;2.30;;;1.53;;
5125;SDS011;63008;53.112;8.896;2023-08-17T12:03:41;2.30;;;1.60;;
5125;SDS011;63008;53.112;8.896;2023-08-17T12:05:43;1.80;;;1.20;;
5125;SDS011;63008;53.112;8.896;2023-08-17T12:07:45;1.67;;;1.13;;
5125;SDS011;63008;53.112;8.896;2023-08-17T12:09:47;1.60;;;1.07;;
5125;SDS011;63008;53.112;8.896;2023-08-17T12:11:53;1.17;;;1.07;;
5125;SDS011;63008;53.112;8.896;2023-08-17T12:13:58;3.50;;;1.20;;
5125;SDS011;63008;53.112;8.896;2023-08-17T12:15:59;1.10;;;1.00;;
5125;SDS011;63008;53.112;8.896;2023-08-17T12:18:04;2.20;;;1.30;;
5125;SDS011;63008;53.112;8.896;2023-08-17T12:20:05;4.77;;;1.00;;
5125;SDS011;63008;53.112;8.896;2023-08-17T12:22:06;1.10;;;1.00;;
5125;SDS011;63008;53.112;8.896;2023-08-17T12:24:10;1.07;;;1.00;;
5125;SDS011;63008;53.112;8.896;2023-08-17T12:26:18;1.70;;;1.13;;
5125;SDS011;63008;53.112;8.896;2023-08-17T12:28:21;2.10;;;0.90;;
5125;SDS011;63008;53.112;8.896;2023-08-17T12:30:24;0.87;;;0.83;;
5125;SDS011;63008;53.112;8.896;2023-08-17T12:32:27;1.00;;;0.97;;
5125;SDS011;63008;53.112;8.896;2023-08-17T12:34:27;1.30;;;0.80;;
5125;SDS011;63008;53.112;8.896;2023-08-17T12:36:28;1.57;;;0.70;;
5125;SDS011;63008;53.112;8.896;2023-08-17T12:38:29;0.70;;;0.70;;
5125;SDS011;63008;53.112;8.896;2023-08-17T12:40:30;1.23;;;0.80;;
5125;SDS011;63008;53.112;8.896;2023-08-17T12:42:31;0.83;;;0.80;;
5125;SDS011;63008;53.112;8.896;2023-08-17T12:44:32;1.30;;;0.97;;
5125;SDS011;63008;53.112;8.896;2023-08-17T12:46:33;1.07;;;0.90;;
5125;SDS011;63008;53.112;8.896;2023-08-17T12:48:35;1.20;;;1.10;;
5125;SDS011;63008;53.112;8.896;2023-08-17T12:50:36;0.63;;;0.63;;
5125;SDS011;63008;53.112;8.896;2023-08-17T12:52:37;2.20;;;0.90;;
5125;SDS011;63008;53.112;8.896;2023-08-17T12:54:38;0.80;;;0.80;;
5125;SDS011;63008;53.112;8.896;2023-08-17T12:56:39;1.10;;;1.10;;
5125;SDS011;63008;53.112;8.896;2023-08-17T12:58:40;0.80;;;0.80;;
5125;SDS011;63008;53.112;8.896;2023-08-17T13:00:41;0.80;;;0.80;;
5125;SDS011;63008;53.112;8.896;2023-08-17T13:02:42;0.83;;;0.80;;
5125;SDS011;63008;53.112;8.896;2023-08-17T13:04:44;1.67;;;0.60;;
5125;SDS011;63008;53.112;8.896;2023-08-17T13:06:45;1.03;;;1.00;;
5125;SDS011;63008;53.112;8.896;2023-08-17T13:08:48;1.33;;;1.07;;
5125;SDS011;63008;53.112;8.896;2023-08-17T13:10:49;1.87;;;1.00;;
5125;SDS011;63008;53.112;8.896;2023-08-17T13:12:50;1.63;;;0.80;;
5125;SDS011;63008;53.112;8.896;2023-08-17T13:14:55;0.70;;;0.70;;
5125;SDS011;63008;53.112;8.896;2023-08-17T13:16:56;1.53;;;0.97;;
5125;SDS011;63008;53.112;8.896;2023-08-17T13:18:57;8.50;;;1.73;;
5125;SDS011;63008;53.112;8.896;2023-08-17T13:20:58;1.97;;;0.60;;
5125;SDS011;63008;53.112;8.896;2023-08-17T13:22:59;0.87;;;0.87;;
5125;SDS011;63008;53.112;8.896;2023-08-17T13:25:00;2.37;;;0.77;;
5125;SDS011;63008;53.112;8.896;2023-08-17T13:27:01;0.70;;;0.70;;
5125;SDS011;63008;53.112;8.896;2023-08-17T13:29:01;0.63;;;0.63;;
5125;SDS011;63008;53.112;8.896;2023-08-17T13:31:03;3.10;;;0.73;;
5125;SDS011;63008;53.112;8.896;2023-08-17T13:33:04;2.63;;;0.97;;
5125;SDS011;63008;53.112;8.896;2023-08-17T13:35:06;1.17;;;0.77;;
5125;SDS011;63008;53.112;8.896;2023-08-17T13:37:07;0.50;;;0.50;;
5125;SDS011;63008;53.112;8.896;2023-08-17T13:39:08;1.73;;;0.80;;
5125;SDS011;63008;53.112;8.896;2023-08-17T13:41:10;0.57;;;0.57;;
5125;SDS011;63008;53.112;8.896;2023-08-17T13:43:11;1.13;;;0.93;;
5125;SDS011;63008;53.112;8.896;2023-08-17T13:45:14;0.70;;;0.60;;
5125;SDS011;63008;53.112;8.896;2023-08-17T13:47:15;1.10;;;0.90;;
5125;SDS011;63008;53.112;8.896;2023-08-17T13:49:16;0.80;;;0.80;;
5125;SDS011;63008;53.112;8.896;2023-08-17T13:51:17;2.03;;;0.90;;
5125;SDS011;63008;53.112;8.896;2023-08-17T13:53:19;1.40;;;1.30;;
5125;SDS011;63008;53.112;8.896;2023-08-17T13:55:20;1.03;;;0.67;;
5125;SDS011;63008;53.112;8.896;2023-08-17T13:57:21;1.13;;;0.67;;
5125;SDS011;63008;53.112;8.896;2023-08-17T13:59:22;1.73;;;0.70;;
5125;SDS011;63008;53.112;8.896;2023-08-17T14:01:23;0.70;;;0.70;;